createdAt,value
2023-04-01T00:04:30.213Z,4.63
2023-04-01T00:09:32.721Z,4.63
2023-04-01T00:14:35.906Z,4.61
2023-04-01T00:19:38.186Z,4.64
2023-04-01T00:24:40.395Z,4.63
2023-04-01T00:29:51.381Z,4.76
2023-04-01T00:34:54.166Z,4.67
2023-04-01T00:39:56.830Z,4.65
2023-04-01T00:44:59.850Z,4.67
2023-04-01T00:50:02.185Z,4.67
2023-04-01T00:55:08.543Z,4.68
2023-04-01T01:00:15.046Z,4.68
2023-04-01T01:05:18.870Z,4.61
2023-04-01T01:10:40.408Z,4.81
2023-04-01T01:15:51.099Z,4.74
2023-04-01T01:21:12.769Z,4.65
2023-04-01T01:26:51.499Z,4.70
2023-04-01T01:32:12.692Z,4.60
2023-04-01T01:37:20.310Z,4.59
2023-04-01T01:42:25.621Z,4.53
2023-04-01T01:47:29.951Z,4.49
2023-04-01T01:52:32.367Z,4.46
2023-04-01T01:57:39.329Z,4.48
2023-04-01T02:02:49.160Z,4.50
2023-04-01T02:08:01.630Z,4.59
2023-04-01T02:13:10.673Z,4.53
2023-04-01T02:18:14.573Z,4.49
2023-04-01T02:23:17.122Z,4.50
2023-04-01T02:28:21.675Z,4.54
2023-04-01T02:33:25.289Z,4.53
2023-04-01T02:38:27.612Z,4.54
2023-04-01T02:43:29.818Z,4.48
2023-04-01T02:48:32.004Z,4.48
2023-04-01T02:53:34.132Z,4.49
2023-04-01T02:58:36.580Z,4.52
2023-04-01T03:03:38.817Z,4.55
2023-04-01T03:08:41.608Z,4.59
2023-04-01T03:13:43.857Z,4.67
2023-04-01T03:18:47.013Z,4.73
2023-04-01T03:23:50.432Z,4.77
2023-04-01T03:28:52.571Z,4.77
2023-04-01T03:33:55.031Z,4.84
2023-04-01T03:38:58.030Z,4.82
2023-04-01T03:44:09.164Z,4.85
2023-04-01T03:49:12.801Z,4.84
2023-04-01T03:54:15.339Z,4.81
2023-04-01T03:59:19.657Z,4.84
2023-04-01T04:04:21.903Z,4.85
2023-04-01T04:09:24.551Z,4.89
2023-04-01T04:14:26.921Z,4.89
2023-04-01T04:19:34.932Z,4.99
2023-04-01T04:24:37.620Z,4.94
2023-04-01T04:29:44.515Z,5.00
2023-04-01T04:34:46.665Z,5.01
2023-04-01T04:39:49.206Z,5.09
2023-04-01T04:44:51.262Z,5.15
2023-04-01T04:49:53.392Z,5.26
2023-04-01T04:54:55.740Z,5.38
2023-04-01T04:59:58.002Z,5.56
2023-04-01T05:05:14.108Z,5.67
2023-04-01T05:10:16.437Z,5.75
2023-04-01T05:15:18.842Z,5.86
2023-04-01T05:20:21.053Z,5.99
2023-04-01T05:25:23.169Z,6.14
2023-04-01T05:30:25.472Z,6.25
2023-04-01T05:35:41.205Z,6.39
2023-04-01T05:40:43.550Z,6.34
2023-04-01T05:45:45.786Z,6.41
2023-04-01T05:50:50.876Z,6.49
2023-04-01T05:55:53.050Z,6.57
2023-04-01T06:01:08.517Z,6.76
2023-04-01T06:06:28.795Z,6.89
2023-04-01T06:12:06.746Z,6.89
2023-04-01T06:17:25.542Z,6.92
2023-04-01T06:22:52.356Z,7.43
2023-04-01T06:27:57.431Z,8.10
2023-04-01T06:33:29.970Z,9.10
2023-04-01T06:39:11.295Z,9.59
2023-04-01T06:44:32.930Z,9.71
2023-04-01T06:50:08.916Z,9.90
2023-04-01T06:55:57.952Z,9.83
2023-04-01T07:02:08.853Z,9.84
2023-04-01T07:07:30.421Z,9.55
2023-04-01T07:12:59.807Z,9.37
2023-04-01T07:18:42.317Z,9.24
2023-04-01T07:23:47.394Z,9.19
2023-04-01T07:29:16.576Z,9.27
2023-04-01T07:34:41.361Z,9.75
2023-04-01T07:40:17.401Z,11.28
2023-04-01T07:45:37.052Z,12.50
2023-04-01T07:51:03.104Z,13.37
2023-04-01T07:56:21.037Z,13.53
2023-04-01T08:01:26.522Z,13.44
2023-04-01T08:06:43.755Z,13.77
2023-04-01T08:12:03.562Z,13.80
2023-04-01T08:17:49.181Z,13.29
2023-04-01T08:23:06.400Z,13.13
2023-04-01T08:28:37.239Z,13.14
2023-04-01T08:33:43.167Z,13.34
2023-04-01T08:38:55.610Z,14.78
2023-04-01T08:44:16.494Z,15.41
2023-04-01T08:49:44.174Z,16.27
2023-04-01T08:55:14.752Z,17.25
2023-04-01T09:00:34.912Z,18.04
2023-04-01T09:05:48.332Z,20.72
2023-04-01T09:11:09.407Z,24.26
2023-04-01T09:16:58.408Z,26.57
2023-04-01T09:22:06.409Z,28.30
2023-04-01T09:27:17.854Z,30.44
2023-04-01T09:32:24.943Z,30.82
2023-04-01T09:38:23.444Z,30.24
2023-04-01T09:43:27.908Z,28.63
2023-04-01T09:48:46.307Z,29.81
2023-04-01T09:54:33.598Z,28.39
2023-04-01T09:59:57.472Z,26.88
2023-04-01T10:05:46.852Z,26.75
2023-04-01T10:10:53.298Z,25.92
2023-04-01T10:16:30.614Z,27.29
2023-04-01T10:22:02.263Z,27.28
2023-04-01T10:27:09.814Z,28.40
2023-04-01T10:32:50.798Z,28.39
2023-04-01T10:38:20.047Z,25.40
2023-04-01T10:43:52.363Z,25.79
2023-04-01T10:49:28.625Z,25.57
2023-04-01T10:54:50.628Z,25.35
2023-04-01T11:00:50.623Z,27.17
2023-04-01T11:06:44.711Z,27.33
2023-04-01T11:12:24.286Z,27.01
2023-04-01T11:17:40.197Z,27.71
2023-04-01T11:22:43.288Z,26.20
2023-04-01T11:28:08.918Z,26.95
2023-04-01T11:33:35.744Z,26.47
2023-04-01T11:39:05.701Z,25.07
2023-04-01T11:44:29.938Z,23.24
2023-04-01T11:50:24.629Z,22.10
2023-04-01T11:55:35.854Z,20.30
2023-04-01T12:01:08.260Z,19.36
2023-04-01T12:06:38.286Z,18.23
2023-04-01T12:11:56.086Z,17.37
2023-04-01T12:17:09.436Z,16.91
2023-04-01T12:22:36.409Z,16.39
2023-04-01T12:28:21.376Z,15.72
2023-04-01T12:33:26.305Z,14.97
2023-04-01T12:38:36.773Z,14.34
2023-04-01T12:43:41.968Z,14.19
2023-04-01T12:49:17.677Z,14.43
2023-04-01T12:54:31.368Z,14.34
2023-04-01T12:59:56.433Z,14.37
2023-04-01T13:05:07.569Z,14.30
2023-04-01T13:10:37.745Z,14.44
2023-04-01T13:16:07.991Z,14.37
2023-04-01T13:21:26.008Z,13.97
2023-04-01T13:26:37.811Z,13.38
2023-04-01T13:32:07.200Z,12.97
2023-04-01T13:37:15.158Z,12.55
2023-04-01T13:42:35.092Z,12.32
2023-04-01T13:48:07.767Z,12.05
2023-04-01T13:53:25.056Z,11.77
2023-04-01T13:59:02.218Z,11.55
2023-04-01T14:04:15.561Z,11.24
2023-04-01T14:09:34.359Z,11.22
2023-04-01T14:14:48.510Z,11.14
2023-04-01T14:19:53.325Z,11.00
2023-04-01T14:24:57.998Z,10.93
2023-04-01T14:30:27.503Z,11.11
2023-04-01T14:35:43.146Z,10.84
2023-04-01T14:41:00.450Z,10.80
2023-04-01T14:46:26.790Z,10.50
2023-04-01T14:51:40.074Z,10.49
2023-04-01T14:56:49.453Z,10.41
2023-04-01T15:02:30.813Z,10.42
2023-04-01T15:07:59.109Z,10.13
2023-04-01T15:13:13.400Z,10.07
2023-04-01T15:18:32.103Z,9.85
2023-04-01T15:23:52.379Z,9.52
2023-04-01T15:28:58.393Z,9.35
2023-04-01T15:34:32.264Z,9.22
2023-04-01T15:39:49.724Z,9.07
2023-04-01T15:44:59.822Z,8.79
2023-04-01T15:50:34.275Z,8.89
2023-04-01T15:56:40.886Z,8.83
2023-04-01T16:02:32.432Z,8.79
2023-04-01T16:08:11.960Z,8.85
2023-04-01T16:13:19.736Z,8.83
2023-04-01T16:18:32.940Z,8.75
2023-04-01T16:23:44.679Z,8.91
2023-04-01T16:29:04.856Z,8.93
2023-04-01T16:34:33.057Z,8.89
2023-04-01T16:39:47.562Z,8.72
2023-04-01T16:45:07.647Z,8.74
2023-04-01T16:50:24.507Z,8.80
2023-04-01T16:55:42.878Z,8.78
2023-04-01T17:00:57.103Z,8.85
2023-04-01T17:06:30.707Z,8.93
2023-04-01T17:12:11.491Z,9.00
2023-04-01T17:17:58.551Z,9.06
2023-04-01T17:23:49.716Z,9.08
2023-04-01T17:29:45.781Z,9.10
2023-04-01T17:34:57.804Z,8.81
2023-04-01T17:40:16.804Z,9.17
2023-04-01T17:45:36.658Z,8.80
2023-04-01T17:51:22.899Z,9.01
2023-04-01T17:56:43.385Z,8.80
2023-04-01T18:02:17.568Z,8.89
2023-04-01T18:07:34.341Z,8.94
2023-04-01T18:13:02.870Z,8.86
2023-04-01T18:18:43.892Z,8.90
2023-04-01T18:24:02.263Z,8.88
2023-04-01T18:29:19.050Z,8.95
2023-04-01T18:35:09.330Z,8.98
2023-04-01T18:40:25.321Z,8.88
2023-04-01T18:45:37.571Z,8.87
2023-04-01T18:50:54.091Z,8.93
2023-04-01T18:56:06.377Z,8.82
2023-04-01T19:01:35.973Z,8.87
2023-04-01T19:07:23.097Z,8.96
2023-04-01T19:12:31.712Z,8.91
2023-04-01T19:17:50.387Z,8.97
2023-04-01T19:23:10.741Z,8.85
2023-04-01T19:28:33.985Z,9.08
2023-04-01T19:34:04.155Z,9.15
2023-04-01T19:39:15.640Z,9.12
2023-04-01T19:44:26.805Z,9.12
2023-04-01T19:49:55.711Z,9.15
2023-04-01T19:55:03.718Z,9.13
2023-04-01T20:00:05.870Z,9.01
2023-04-01T20:05:33.449Z,9.17
2023-04-01T20:10:57.931Z,9.22
2023-04-01T20:16:05.041Z,9.18
2023-04-01T20:21:25.604Z,9.31
2023-04-01T20:26:33.644Z,9.22
2023-04-01T20:31:48.672Z,9.19
2023-04-01T20:37:02.280Z,9.22
2023-04-01T20:42:13.453Z,9.07
2023-04-01T20:47:41.514Z,9.17
2023-04-01T20:52:56.416Z,9.11
2023-04-01T20:58:16.653Z,9.18
2023-04-01T21:03:24.853Z,9.11
2023-04-01T21:08:41.571Z,9.13
2023-04-01T21:14:34.566Z,9.28
2023-04-01T21:19:49.371Z,9.22
2023-04-01T21:25:39.675Z,9.28
2023-04-01T21:30:50.577Z,9.12
2023-04-01T21:36:13.165Z,9.15
2023-04-01T21:41:50.526Z,9.19
2023-04-01T21:46:52.509Z,9.04
2023-04-01T21:52:03.354Z,9.43
2023-04-01T21:57:05.470Z,9.07
2023-04-01T22:02:25.604Z,9.17
2023-04-01T22:07:54.806Z,9.12
2023-04-01T22:13:09.459Z,9.12
2023-04-01T22:18:24.947Z,9.26
2023-04-01T22:23:53.659Z,9.21
2023-04-01T22:29:11.517Z,9.25
2023-04-01T22:34:43.486Z,9.37
2023-04-01T22:40:14.777Z,9.36
2023-04-01T22:45:25.381Z,9.36
2023-04-01T22:50:31.235Z,9.30
2023-04-01T22:55:39.309Z,9.27
2023-04-01T23:01:01.214Z,9.22
2023-04-01T23:06:05.231Z,9.17
2023-04-01T23:11:26.745Z,9.24
2023-04-01T23:16:40.171Z,9.16
2023-04-01T23:21:48.003Z,9.10
2023-04-01T23:27:03.436Z,9.03
2023-04-01T23:32:05.769Z,8.67
2023-04-01T23:37:17.172Z,8.57
2023-04-01T23:42:34.679Z,8.51
2023-04-01T23:47:40.009Z,8.29
2023-04-01T23:52:48.943Z,8.23
2023-04-01T23:58:23.183Z,8.29
